Weather at Naujaat Airport

Public forecast

Using degrees Celsius for public forecast. Weather courtesy of forecast.io.

Current aviation weather report (METAR) for Naujaat Airport

Report is more than 6 hours old.

Retrieved 2020/11/28 21:00 UTC (10 hours ago):

CYUT 282100Z 00000KT 15SM FEW100 M27/M30 A2991 RMK AC1 LAST STFD OBS/NXT 291500Z SLP135

Aviation forecast (TAF) for Naujaat Airport

Forecast is more than 12 hours old.

Retrieved 2020/11/28 17:00 UTC (14 hours ago):

TAF CYUT 281638Z 2817/2821 33007KT P6SM FEW015 TEMPO 2817/2821 5SM IC SCT015 RMK NXT FCST WILL BE ISSUED AT 291645Z